createdAt,value
2018-07-16T04:00:39.119Z,56.25
2018-07-16T04:01:39.104Z,61.88
2018-07-16T04:02:39.098Z,61.88
2018-07-16T04:03:39.069Z,61.88
2018-07-16T04:04:39.087Z,67.50
2018-07-16T04:05:39.097Z,67.50
2018-07-16T04:06:39.033Z,67.50
2018-07-16T04:07:39.022Z,73.12
2018-07-16T04:08:39.034Z,73.12
2018-07-16T04:09:39.015Z,78.75
2018-07-16T04:10:39.014Z,78.75
2018-07-16T04:11:38.971Z,78.75
2018-07-16T04:12:38.964Z,84.38
2018-07-16T04:13:38.980Z,84.38
2018-07-16T04:14:38.940Z,84.38
2018-07-16T04:15:38.942Z,90.00
2018-07-16T04:16:38.919Z,90.00
2018-07-16T04:17:38.906Z,95.62
2018-07-16T04:18:38.894Z,95.62
2018-07-16T04:19:38.889Z,95.62
2018-07-16T04:20:38.885Z,101.25
2018-07-16T04:21:38.877Z,101.25
2018-07-16T04:22:38.853Z,101.25
2018-07-16T04:23:38.845Z,106.88
2018-07-16T04:24:38.832Z,106.88
2018-07-16T04:25:38.836Z,106.88
2018-07-16T04:26:38.846Z,112.50
2018-07-16T04:27:38.834Z,112.50
2018-07-16T04:28:38.788Z,112.50
2018-07-16T04:29:38.777Z,118.12
2018-07-16T04:30:38.806Z,118.12
2018-07-16T04:31:38.749Z,118.12
2018-07-16T04:32:38.743Z,118.12
2018-07-16T04:33:38.731Z,123.75
2018-07-16T04:34:38.724Z,123.75
2018-07-16T04:35:38.709Z,123.75
2018-07-16T04:36:38.709Z,129.38
2018-07-16T04:37:38.686Z,129.38
2018-07-16T04:38:38.670Z,129.38
2018-07-16T04:39:38.669Z,129.38
2018-07-16T04:40:38.650Z,135.00
2018-07-16T04:41:38.649Z,129.38
2018-07-16T04:42:38.630Z,129.38
2018-07-16T04:43:38.621Z,129.38
2018-07-16T04:44:38.621Z,129.38
2018-07-16T04:45:38.597Z,123.75
2018-07-16T04:46:38.599Z,123.75
2018-07-16T04:47:38.584Z,123.75
2018-07-16T04:48:38.570Z,123.75
2018-07-16T04:49:38.556Z,129.38
2018-07-16T04:50:38.542Z,129.38
2018-07-16T04:51:38.541Z,129.38
2018-07-16T04:52:38.555Z,129.38
2018-07-16T04:53:38.522Z,135.00
2018-07-16T04:54:38.500Z,135.00
2018-07-16T04:55:38.488Z,140.62
2018-07-16T04:56:38.483Z,146.25
2018-07-16T04:57:38.467Z,146.25
2018-07-16T04:58:38.458Z,151.88
2018-07-16T04:59:38.441Z,163.12
2018-07-16T05:00:38.430Z,168.75
2018-07-16T05:01:38.433Z,174.38
2018-07-16T05:02:38.406Z,180.00
2018-07-16T05:03:38.399Z,185.62
2018-07-16T05:04:38.385Z,191.25
2018-07-16T05:05:38.379Z,196.88
2018-07-16T05:06:38.372Z,202.50
2018-07-16T05:07:38.360Z,202.50
2018-07-16T05:08:38.340Z,208.12
2018-07-16T05:09:38.340Z,213.75
2018-07-16T05:10:38.317Z,219.38
2018-07-16T05:11:38.319Z,230.62
2018-07-16T05:12:38.295Z,236.25
2018-07-16T05:13:38.284Z,241.88
2018-07-16T05:14:38.278Z,247.50
2018-07-16T05:15:38.296Z,253.12
2018-07-16T05:16:38.268Z,258.75
2018-07-16T05:17:38.239Z,258.75
2018-07-16T05:18:38.233Z,258.75
2018-07-16T05:19:38.221Z,258.75
2018-07-16T05:20:38.217Z,258.75
2018-07-16T05:21:38.211Z,258.75
2018-07-16T05:22:38.189Z,258.75
2018-07-16T05:23:38.173Z,253.12
2018-07-16T05:24:38.169Z,253.12
2018-07-16T05:25:38.160Z,258.75
2018-07-16T05:26:38.162Z,258.75
2018-07-16T05:27:38.129Z,264.38
2018-07-16T05:28:38.123Z,264.38
2018-07-16T05:29:38.107Z,270.00
2018-07-16T05:30:38.097Z,270.00
2018-07-16T05:31:38.117Z,275.62
2018-07-16T05:32:38.310Z,275.62
2018-07-16T05:33:38.063Z,281.25
2018-07-16T05:34:38.054Z,286.88
2018-07-16T05:35:38.045Z,292.50
2018-07-16T05:36:38.046Z,292.50
2018-07-16T05:37:38.024Z,292.50
2018-07-16T05:38:38.015Z,292.50
2018-07-16T05:39:38.000Z,298.12
2018-07-16T05:40:37.988Z,298.12
2018-07-16T05:41:37.986Z,298.12
2018-07-16T05:42:37.966Z,303.75
2018-07-16T05:43:37.954Z,309.38
2018-07-16T05:44:37.944Z,309.38
2018-07-16T05:45:37.934Z,315.00
2018-07-16T05:46:37.934Z,320.62
2018-07-16T05:47:37.909Z,320.62
2018-07-16T05:48:37.904Z,326.25
2018-07-16T05:49:37.887Z,331.88
2018-07-16T05:50:37.883Z,331.88
2018-07-16T05:51:37.925Z,337.50
2018-07-16T05:52:37.853Z,343.12
2018-07-16T05:53:37.846Z,348.75
2018-07-16T05:54:37.831Z,354.38
2018-07-16T05:55:37.821Z,354.38
2018-07-16T05:56:37.875Z,360.00
2018-07-16T05:57:37.801Z,365.62
2018-07-16T05:58:37.791Z,365.62
2018-07-16T05:59:37.783Z,371.25
2018-07-16T06:00:37.770Z,371.25
2018-07-16T06:01:37.766Z,382.50
2018-07-16T06:02:37.751Z,388.12
2018-07-16T06:03:37.763Z,399.38
2018-07-16T06:04:37.742Z,410.62
2018-07-16T06:05:37.710Z,433.12
2018-07-16T06:06:37.703Z,461.25
2018-07-16T06:07:37.699Z,472.50
2018-07-16T06:08:37.705Z,478.12
2018-07-16T06:09:37.665Z,495.00
2018-07-16T06:10:37.659Z,511.88
2018-07-16T06:11:37.643Z,528.75
2018-07-16T06:12:37.643Z,540.00
2018-07-16T06:13:37.621Z,545.62
2018-07-16T06:14:37.691Z,545.62
2018-07-16T06:15:37.604Z,556.88
2018-07-16T06:16:37.604Z,562.50
2018-07-16T06:17:37.595Z,573.75
2018-07-16T06:18:37.594Z,573.75
2018-07-16T06:19:37.558Z,568.12
2018-07-16T06:20:37.547Z,573.75
2018-07-16T06:21:37.578Z,562.50
2018-07-16T06:22:37.535Z,579.38
2018-07-16T06:23:37.520Z,618.75
2018-07-16T06:24:37.498Z,748.12
2018-07-16T06:25:37.504Z,798.75
2018-07-16T06:26:37.478Z,832.50
2018-07-16T06:27:37.474Z,866.25
2018-07-16T06:28:37.457Z,877.50
2018-07-16T06:29:37.445Z,933.75
2018-07-16T06:30:37.437Z,950.62
2018-07-16T06:31:37.423Z,939.38
2018-07-16T06:32:37.422Z,922.50
2018-07-16T06:33:37.399Z,838.12
2018-07-16T06:34:37.384Z,798.75
2018-07-16T06:35:37.384Z,765.00
2018-07-16T06:36:37.365Z,748.12
2018-07-16T06:37:37.373Z,787.50
2018-07-16T06:38:37.345Z,815.62
2018-07-16T06:39:37.373Z,826.88
2018-07-16T06:40:37.524Z,855.00
2018-07-16T06:41:37.599Z,855.00
2018-07-16T06:42:37.319Z,855.00
2018-07-16T06:43:37.288Z,900.00
2018-07-16T06:44:37.284Z,849.38
2018-07-16T06:45:37.268Z,753.75
2018-07-16T06:46:37.256Z,703.12
2018-07-16T06:47:37.256Z,708.75
2018-07-16T06:48:37.234Z,686.25
2018-07-16T06:49:37.221Z,680.62
2018-07-16T06:50:37.212Z,669.38
2018-07-16T06:51:37.199Z,675.00
2018-07-16T06:52:37.207Z,675.00
2018-07-16T06:53:37.183Z,680.62
2018-07-16T06:54:37.168Z,680.62
2018-07-16T06:55:37.188Z,686.25
2018-07-16T06:56:37.197Z,691.88
2018-07-16T06:57:37.144Z,697.50
2018-07-16T06:58:37.129Z,708.75
2018-07-16T06:59:37.123Z,714.38
2018-07-16T07:00:37.106Z,720.00
2018-07-16T07:01:37.091Z,736.88
2018-07-16T07:02:37.095Z,759.38
2018-07-16T07:03:37.065Z,804.38
2018-07-16T07:04:37.057Z,838.12
2018-07-16T07:05:37.046Z,832.50
2018-07-16T07:06:37.048Z,860.62
2018-07-16T07:07:37.041Z,961.88
2018-07-16T07:08:37.073Z,1080.00
2018-07-16T07:09:37.012Z,1125.00
2018-07-16T07:10:36.994Z,1153.12
2018-07-16T07:11:36.983Z,1153.12
2018-07-16T07:12:36.991Z,1158.75
2018-07-16T07:13:36.963Z,1164.38
2018-07-16T07:14:36.958Z,1158.75
2018-07-16T07:15:36.951Z,1170.00
2018-07-16T07:16:36.928Z,1164.38
2018-07-16T07:17:36.932Z,1147.50
2018-07-16T07:18:36.908Z,1153.12
2018-07-16T07:19:36.898Z,1136.25
2018-07-16T07:20:36.887Z,1113.75
2018-07-16T07:21:36.875Z,1091.25
2018-07-16T07:22:36.891Z,1074.38
2018-07-16T07:23:36.857Z,1057.50
2018-07-16T07:24:36.845Z,1046.25
2018-07-16T07:25:36.921Z,1029.38
2018-07-16T07:26:36.821Z,1029.38
2018-07-16T07:27:36.824Z,1023.75
2018-07-16T07:28:36.879Z,1012.50
2018-07-16T07:29:36.788Z,1001.25
2018-07-16T07:30:36.779Z,1006.88
2018-07-16T07:31:36.767Z,1006.88
2018-07-16T07:32:36.773Z,1018.12
2018-07-16T07:33:36.751Z,1035.00
2018-07-16T07:34:36.735Z,1029.38
2018-07-16T07:35:36.848Z,1023.75
2018-07-16T07:36:36.713Z,1029.38
2018-07-16T07:37:36.743Z,1063.12
2018-07-16T07:38:36.695Z,1057.50
2018-07-16T07:39:36.693Z,1063.12
2018-07-16T07:40:36.671Z,1080.00
2018-07-16T07:41:36.659Z,1085.62
2018-07-16T07:42:36.650Z,1096.88
2018-07-16T07:43:36.653Z,1096.88
2018-07-16T07:44:36.636Z,1102.50
2018-07-16T07:45:36.620Z,1085.62
2018-07-16T07:46:36.615Z,1085.62
2018-07-16T07:47:36.628Z,1074.38
2018-07-16T07:48:36.598Z,1074.38
2018-07-16T07:49:36.623Z,1074.38
2018-07-16T07:50:36.565Z,1074.38
2018-07-16T07:51:36.554Z,1068.75
2018-07-16T07:52:36.545Z,1074.38
2018-07-16T07:53:36.547Z,1068.75
2018-07-16T07:54:36.763Z,1063.12
2018-07-16T07:55:36.549Z,1063.12
2018-07-16T07:56:36.501Z,1074.38
2018-07-16T07:57:36.492Z,1085.62
2018-07-16T07:58:36.488Z,1102.50
2018-07-16T07:59:36.468Z,1119.38
2018-07-16T08:00:36.459Z,1113.75
2018-07-16T08:01:36.447Z,1102.50
2018-07-16T08:02:36.435Z,1113.75
2018-07-16T08:03:36.440Z,1125.00
2018-07-16T08:04:36.419Z,1158.75
2018-07-16T08:05:36.410Z,1170.00
2018-07-16T08:06:36.396Z,1175.62
2018-07-16T08:07:36.384Z,1136.25
2018-07-16T08:08:36.390Z,1091.25
2018-07-16T08:09:36.360Z,1136.25
2018-07-16T08:10:36.352Z,1141.88
2018-07-16T08:11:36.343Z,1175.62
2018-07-16T08:12:36.328Z,1192.50
2018-07-16T08:13:36.344Z,1243.12
2018-07-16T08:14:36.312Z,1271.25
2018-07-16T08:15:36.298Z,1288.12
2018-07-16T08:16:36.290Z,1288.12
2018-07-16T08:17:36.276Z,1271.25
2018-07-16T08:18:36.313Z,1243.12
2018-07-16T08:19:36.266Z,1203.75
2018-07-16T08:20:36.246Z,1175.62
2018-07-16T08:21:36.241Z,1119.38
2018-07-16T08:22:36.225Z,1141.88
2018-07-16T08:23:36.223Z,1108.12
2018-07-16T08:24:36.202Z,1125.00
2018-07-16T08:25:36.192Z,1085.62
2018-07-16T08:26:36.180Z,1068.75
2018-07-16T08:27:36.198Z,1125.00
2018-07-16T08:28:36.174Z,1136.25
2018-07-16T08:29:36.148Z,1226.25
2018-07-16T08:30:36.142Z,1282.50
2018-07-16T08:31:36.127Z,1260.00
2018-07-16T08:32:36.118Z,1260.00
2018-07-16T08:33:36.179Z,1243.12
2018-07-16T08:34:36.100Z,1299.38
2018-07-16T08:35:36.087Z,1276.88
2018-07-16T08:36:36.101Z,1327.50
2018-07-16T08:37:36.071Z,1316.25
2018-07-16T08:38:36.069Z,1333.12
2018-07-16T08:39:36.044Z,1350.00
2018-07-16T08:40:36.041Z,1327.50
2018-07-16T08:41:36.023Z,1338.75
2018-07-16T08:42:36.009Z,1395.00
2018-07-16T08:43:36.026Z,1473.75
2018-07-16T08:44:35.989Z,1501.88
2018-07-16T08:45:35.979Z,1569.38
2018-07-16T08:46:35.983Z,1603.12
2018-07-16T08:47:35.958Z,1620.00
2018-07-16T08:48:35.965Z,1631.25
2018-07-16T08:49:35.936Z,1575.00
2018-07-16T08:50:35.936Z,1580.62
2018-07-16T08:51:35.915Z,1575.00
2018-07-16T08:52:35.918Z,1597.50
2018-07-16T08:53:35.911Z,1620.00
2018-07-16T08:54:35.883Z,1608.75
2018-07-16T08:55:35.870Z,1575.00
2018-07-16T08:56:35.863Z,1558.12
2018-07-16T08:57:35.849Z,1591.88
2018-07-16T08:58:35.848Z,1552.50
2018-07-16T08:59:35.831Z,1552.50
2018-07-16T09:00:35.817Z,1524.38
2018-07-16T09:01:35.808Z,1552.50
2018-07-16T09:02:35.823Z,1541.25
2018-07-16T09:03:35.798Z,1541.25
2018-07-16T09:04:35.772Z,1580.62
2018-07-16T09:05:35.803Z,1586.25
2018-07-16T09:06:35.754Z,1591.88
2018-07-16T09:07:35.744Z,1603.12
2018-07-16T09:08:35.744Z,1591.88
2018-07-16T09:09:35.720Z,1625.62
2018-07-16T09:10:35.711Z,1608.75
2018-07-16T09:11:35.697Z,1625.62
2018-07-16T09:12:35.690Z,1670.62
2018-07-16T09:13:35.739Z,1676.25
2018-07-16T09:14:35.713Z,1726.88
2018-07-16T09:15:35.657Z,1783.12
2018-07-16T09:16:35.648Z,1833.75
2018-07-16T09:17:35.635Z,1884.38
2018-07-16T09:18:35.621Z,1935.00
2018-07-16T09:19:35.627Z,1991.25
2018-07-16T09:20:35.604Z,2070.00
2018-07-16T09:21:35.588Z,2165.62
2018-07-16T09:22:35.576Z,2244.38
2018-07-16T09:23:35.584Z,2272.50
2018-07-16T09:24:35.568Z,2323.12
2018-07-16T09:25:35.712Z,2390.62
2018-07-16T09:26:35.535Z,2368.12
2018-07-16T09:27:35.523Z,2086.88
2018-07-16T09:28:35.512Z,2520.00
2018-07-16T09:29:35.512Z,2790.00
2018-07-16T09:30:35.495Z,3009.38
2018-07-16T09:31:35.476Z,3161.25
2018-07-16T09:32:35.500Z,3346.88
2018-07-16T09:33:35.454Z,3481.88
2018-07-16T09:34:35.454Z,3571.88
2018-07-16T09:35:35.435Z,3628.12
2018-07-16T09:36:35.423Z,3678.75
2018-07-16T09:37:35.411Z,3690.00
2018-07-16T09:38:35.410Z,3746.25
2018-07-16T09:39:35.400Z,3858.75
2018-07-16T09:40:35.381Z,4016.25
2018-07-16T09:41:35.367Z,4123.12
2018-07-16T09:42:35.357Z,4246.88
2018-07-16T09:43:35.349Z,4331.25
2018-07-16T09:44:35.347Z,4348.12
2018-07-16T09:45:35.324Z,4325.62
2018-07-16T09:46:35.315Z,4336.88
2018-07-16T09:47:35.426Z,4370.62
2018-07-16T09:48:35.287Z,4415.62
2018-07-16T09:49:35.288Z,4365.00
2018-07-16T09:50:35.265Z,4365.00
2018-07-16T09:51:35.256Z,4246.88
2018-07-16T09:52:35.245Z,4218.75
2018-07-16T09:53:35.231Z,3960.00
2018-07-16T09:54:35.236Z,3673.12
2018-07-16T09:55:35.212Z,3740.62
2018-07-16T09:56:35.208Z,3791.25
2018-07-16T09:57:35.189Z,3628.12
2018-07-16T09:58:35.190Z,3414.38
2018-07-16T09:59:35.174Z,3622.50
2018-07-16T10:00:35.436Z,3780.00
2018-07-16T10:01:35.144Z,3740.62
2018-07-16T10:02:35.132Z,3740.62
2018-07-16T10:03:35.123Z,3757.50
2018-07-16T10:04:35.120Z,3611.25
2018-07-16T10:05:35.097Z,3015.00
2018-07-16T10:06:35.084Z,3307.50
2018-07-16T10:07:35.072Z,3369.38
2018-07-16T10:08:35.154Z,3414.38
2018-07-16T10:09:35.068Z,3369.38
2018-07-16T10:10:35.049Z,3161.25
2018-07-16T10:11:35.038Z,2880.00
2018-07-16T10:12:35.032Z,1951.88
2018-07-16T10:13:35.014Z,1327.50
2018-07-16T10:14:35.007Z,1243.12
2018-07-16T10:15:34.989Z,1203.75
2018-07-16T10:16:34.970Z,1175.62
2018-07-16T10:17:34.963Z,1158.75
2018-07-16T10:18:35.040Z,1147.50
2018-07-16T10:19:34.962Z,1141.88
2018-07-16T10:20:34.938Z,1141.88
2018-07-16T10:21:34.921Z,1147.50
2018-07-16T10:22:34.908Z,1147.50
2018-07-16T10:23:34.902Z,1153.12
2018-07-16T10:24:34.896Z,1147.50
2018-07-16T10:25:34.875Z,1147.50
2018-07-16T10:26:34.864Z,1136.25
2018-07-16T10:27:35.189Z,1125.00
2018-07-16T10:28:34.842Z,1119.38
2018-07-16T10:29:34.861Z,1108.12
2018-07-16T10:30:34.817Z,1108.12
2018-07-16T10:31:34.842Z,1096.88
2018-07-16T10:32:34.798Z,1085.62
2018-07-16T10:33:34.779Z,1074.38
2018-07-16T10:34:34.782Z,1068.75
2018-07-16T10:35:34.759Z,1063.12
2018-07-16T10:36:34.750Z,1051.88
2018-07-16T10:37:34.735Z,1051.88
2018-07-16T10:38:34.764Z,1057.50
2018-07-16T10:39:34.725Z,1051.88
2018-07-16T10:40:34.714Z,1040.62
2018-07-16T10:41:34.693Z,1035.00
2018-07-16T10:42:34.683Z,1023.75
2018-07-16T10:43:34.672Z,1012.50
2018-07-16T10:44:34.666Z,990.00
2018-07-16T10:45:34.653Z,956.25
2018-07-16T10:46:34.637Z,883.12
2018-07-16T10:47:34.624Z,821.25
2018-07-16T10:48:34.616Z,720.00
2018-07-16T10:49:34.620Z,585.00
2018-07-16T10:50:34.639Z,478.12
2018-07-16T10:51:34.578Z,405.00
2018-07-16T10:52:34.571Z,354.38
2018-07-16T10:53:34.563Z,309.38
2018-07-16T10:54:34.545Z,270.00
2018-07-16T10:55:34.548Z,253.12
2018-07-16T10:56:34.526Z,241.88
2018-07-16T10:57:34.518Z,236.25
2018-07-16T10:58:34.505Z,225.00
2018-07-16T10:59:34.490Z,219.38
2018-07-16T11:00:34.492Z,202.50
2018-07-16T11:01:34.468Z,196.88
2018-07-16T11:02:34.459Z,196.88
2018-07-16T11:03:34.445Z,196.88
2018-07-16T11:04:34.433Z,202.50
2018-07-16T11:05:34.532Z,213.75
2018-07-16T11:06:34.414Z,230.62
2018-07-16T11:07:34.407Z,247.50
2018-07-16T11:08:34.389Z,270.00
2018-07-16T11:09:34.383Z,303.75
2018-07-16T11:10:34.380Z,326.25
2018-07-16T11:11:34.364Z,348.75
2018-07-16T11:12:34.345Z,371.25
2018-07-16T11:13:34.338Z,393.75
2018-07-16T11:14:34.327Z,410.62
2018-07-16T11:15:34.340Z,405.00
2018-07-16T11:16:34.304Z,393.75
2018-07-16T11:17:34.290Z,388.12
2018-07-16T11:18:34.317Z,388.12
2018-07-16T11:19:34.269Z,393.75
2018-07-16T11:20:34.268Z,393.75
2018-07-16T11:21:34.276Z,388.12
2018-07-16T11:22:34.269Z,388.12
2018-07-16T11:23:34.221Z,376.88
2018-07-16T11:24:34.212Z,365.62
2018-07-16T11:25:34.212Z,365.62
2018-07-16T11:26:34.187Z,354.38
2018-07-16T11:27:34.176Z,348.75
2018-07-16T11:28:34.168Z,354.38
2018-07-16T11:29:34.153Z,360.00
2018-07-16T11:30:34.153Z,376.88
2018-07-16T11:31:34.137Z,399.38
2018-07-16T11:32:34.122Z,416.25
2018-07-16T11:33:34.109Z,421.88
2018-07-16T11:34:34.104Z,421.88
2018-07-16T11:35:34.184Z,421.88
2018-07-16T11:36:34.075Z,416.25
2018-07-16T11:37:34.066Z,405.00
2018-07-16T11:38:34.058Z,399.38
2018-07-16T11:39:34.040Z,393.75
2018-07-16T11:40:34.046Z,388.12
2018-07-16T11:41:34.018Z,376.88
2018-07-16T11:42:34.012Z,371.25
2018-07-16T11:43:33.999Z,365.62
2018-07-16T11:44:33.984Z,360.00
2018-07-16T11:45:33.990Z,348.75
2018-07-16T11:46:33.964Z,343.12
2018-07-16T11:47:33.951Z,337.50
2018-07-16T11:48:33.943Z,326.25
2018-07-16T11:49:33.935Z,320.62
2018-07-16T11:50:33.932Z,315.00
2018-07-16T11:51:33.908Z,309.38
2018-07-16T11:52:33.899Z,303.75
2018-07-16T11:53:33.887Z,298.12
2018-07-16T11:54:33.875Z,292.50
2018-07-16T11:55:33.883Z,292.50
2018-07-16T11:56:33.856Z,286.88
2018-07-16T11:57:33.843Z,281.25
2018-07-16T11:58:33.833Z,275.62
2018-07-16T11:59:33.852Z,270.00
2018-07-16T12:00:33.821Z,264.38
2018-07-16T12:01:33.797Z,258.75
2018-07-16T12:02:33.792Z,253.12
2018-07-16T12:03:33.830Z,253.12
2018-07-16T12:04:33.764Z,247.50
2018-07-16T12:05:33.762Z,241.88
2018-07-16T12:06:33.741Z,236.25
2018-07-16T12:07:33.732Z,230.62
2018-07-16T12:08:33.728Z,230.62
2018-07-16T12:09:33.707Z,230.62
2018-07-16T12:10:33.705Z,225.00
2018-07-16T12:11:33.688Z,219.38
2018-07-16T12:12:33.682Z,219.38
2018-07-16T12:13:33.671Z,219.38
2018-07-16T12:14:33.662Z,213.75
2018-07-16T12:15:33.650Z,213.75
2018-07-16T12:16:33.628Z,208.12
2018-07-16T12:17:33.649Z,208.12
2018-07-16T12:18:33.607Z,208.12
2018-07-16T12:19:33.596Z,208.12
2018-07-16T12:20:33.710Z,208.12
2018-07-16T12:21:33.570Z,208.12
2018-07-16T12:22:33.561Z,202.50
2018-07-16T12:23:33.554Z,202.50
2018-07-16T12:24:33.543Z,202.50
2018-07-16T12:25:33.561Z,202.50
2018-07-16T12:26:33.517Z,202.50
2018-07-16T12:27:33.506Z,202.50
2018-07-16T12:28:33.505Z,208.12
2018-07-16T12:29:33.482Z,208.12
2018-07-16T12:30:33.488Z,208.12
2018-07-16T12:31:33.472Z,208.12
2018-07-16T12:32:33.447Z,208.12
2018-07-16T12:33:33.437Z,208.12
2018-07-16T12:34:33.429Z,213.75
2018-07-16T12:35:33.417Z,213.75
2018-07-16T12:36:33.429Z,213.75
2018-07-16T12:37:33.394Z,213.75
2018-07-16T12:38:33.385Z,219.38
2018-07-16T12:39:33.372Z,219.38
2018-07-16T12:40:33.363Z,219.38
2018-07-16T12:41:33.505Z,225.00
2018-07-16T12:42:33.362Z,225.00
2018-07-16T12:43:33.327Z,230.62
2018-07-16T12:44:33.320Z,230.62
2018-07-16T12:45:33.308Z,236.25
2018-07-16T12:46:33.311Z,236.25
2018-07-16T12:47:33.281Z,241.88
2018-07-16T12:48:33.272Z,247.50
2018-07-16T12:49:33.263Z,253.12
2018-07-16T12:50:33.252Z,258.75
2018-07-16T12:51:33.256Z,258.75
2018-07-16T12:52:33.229Z,264.38
2018-07-16T12:53:33.213Z,270.00
2018-07-16T12:54:33.228Z,275.62
2018-07-16T12:55:33.232Z,281.25
2018-07-16T12:56:33.207Z,286.88
2018-07-16T12:57:33.168Z,292.50
2018-07-16T12:58:33.166Z,298.12
2018-07-16T12:59:33.151Z,298.12
2018-07-16T13:00:33.137Z,303.75
2018-07-16T13:01:33.138Z,309.38
2018-07-16T13:02:33.118Z,315.00
2018-07-16T13:03:33.103Z,320.62
2018-07-16T13:04:33.095Z,320.62
2018-07-16T13:05:33.079Z,320.62
2018-07-16T13:06:33.077Z,326.25
2018-07-16T13:07:33.055Z,331.88
2018-07-16T13:08:33.045Z,331.88
2018-07-16T13:09:33.049Z,331.88
2018-07-16T13:10:33.022Z,337.50
2018-07-16T13:11:33.025Z,337.50
2018-07-16T13:12:33.000Z,337.50
2018-07-16T13:13:32.994Z,337.50
2018-07-16T13:14:32.977Z,337.50
2018-07-16T13:15:32.972Z,337.50
2018-07-16T13:16:32.970Z,337.50
2018-07-16T13:17:32.947Z,337.50
2018-07-16T13:18:32.935Z,331.88
2018-07-16T13:19:32.923Z,331.88
2018-07-16T13:20:32.910Z,331.88
2018-07-16T13:21:32.912Z,331.88
2018-07-16T13:22:32.891Z,331.88
2018-07-16T13:23:32.882Z,326.25
2018-07-16T13:24:32.868Z,320.62
2018-07-16T13:25:32.862Z,320.62
2018-07-16T13:26:32.885Z,315.00
2018-07-16T13:27:32.834Z,309.38
2018-07-16T13:28:32.935Z,309.38
2018-07-16T13:29:32.810Z,303.75
2018-07-16T13:30:32.797Z,298.12
2018-07-16T13:31:32.804Z,292.50
2018-07-16T13:32:32.779Z,286.88
2018-07-16T13:33:32.766Z,286.88
2018-07-16T13:34:32.756Z,281.25
2018-07-16T13:35:32.751Z,275.62
2018-07-16T13:36:32.745Z,270.00
2018-07-16T13:37:32.721Z,264.38
2018-07-16T13:38:32.733Z,258.75
2018-07-16T13:39:32.698Z,253.12
2018-07-16T13:40:32.691Z,253.12
2018-07-16T13:41:32.695Z,247.50
2018-07-16T13:42:32.668Z,247.50
2018-07-16T13:43:32.657Z,247.50
2018-07-16T13:44:32.651Z,247.50
2018-07-16T13:45:32.636Z,247.50
2018-07-16T13:46:32.673Z,247.50
2018-07-16T13:47:32.613Z,241.88
2018-07-16T13:48:32.604Z,241.88
2018-07-16T13:49:32.593Z,241.88
2018-07-16T13:50:32.580Z,236.25
2018-07-16T13:51:32.582Z,236.25
2018-07-16T13:52:32.554Z,230.62
2018-07-16T13:53:32.546Z,230.62
2018-07-16T13:54:32.533Z,230.62
2018-07-16T13:55:32.521Z,225.00
2018-07-16T13:56:32.524Z,225.00
2018-07-16T13:57:32.498Z,225.00
2018-07-16T13:58:32.497Z,225.00
2018-07-16T13:59:32.478Z,225.00
2018-07-16T14:00:32.514Z,225.00
2018-07-16T14:01:32.480Z,225.00
2018-07-16T14:02:32.447Z,219.38
2018-07-16T14:03:32.438Z,219.38
2018-07-16T14:04:32.428Z,219.38
2018-07-16T14:05:32.413Z,219.38
2018-07-16T14:06:32.401Z,219.38
2018-07-16T14:07:32.402Z,219.38
2018-07-16T14:08:32.376Z,219.38
2018-07-16T14:09:32.366Z,219.38
2018-07-16T14:10:32.356Z,219.38
2018-07-16T14:11:32.346Z,219.38
2018-07-16T14:12:32.350Z,219.38
2018-07-16T14:13:32.324Z,219.38
2018-07-16T14:14:32.316Z,219.38
2018-07-16T14:15:32.315Z,219.38
2018-07-16T14:16:32.294Z,225.00
2018-07-16T14:17:32.294Z,219.38
2018-07-16T14:18:32.270Z,219.38
2018-07-16T14:19:32.256Z,225.00
2018-07-16T14:20:32.249Z,230.62
2018-07-16T14:21:32.242Z,230.62
2018-07-16T14:22:32.238Z,236.25
2018-07-16T14:23:32.231Z,241.88
2018-07-16T14:24:32.206Z,247.50
2018-07-16T14:25:32.194Z,247.50
2018-07-16T14:26:32.181Z,253.12
2018-07-16T14:27:32.183Z,258.75
2018-07-16T14:28:32.160Z,264.38
2018-07-16T14:29:32.148Z,270.00
2018-07-16T14:30:32.138Z,275.62
2018-07-16T14:31:32.129Z,281.25
2018-07-16T14:32:32.129Z,286.88
2018-07-16T14:33:32.112Z,292.50
2018-07-16T14:34:32.099Z,298.12
2018-07-16T14:35:32.087Z,298.12
2018-07-16T14:36:32.077Z,303.75
2018-07-16T14:37:32.073Z,303.75
2018-07-16T14:38:32.053Z,303.75
2018-07-16T14:39:32.268Z,303.75
2018-07-16T14:40:32.028Z,309.38
2018-07-16T14:41:32.026Z,303.75
2018-07-16T14:42:32.044Z,303.75
2018-07-16T14:43:32.049Z,303.75
2018-07-16T14:44:31.983Z,298.12
2018-07-16T14:45:31.975Z,298.12
2018-07-16T14:46:31.960Z,298.12
2018-07-16T14:47:32.010Z,298.12
2018-07-16T14:48:31.951Z,298.12
2018-07-16T14:49:31.929Z,298.12
2018-07-16T14:50:32.006Z,298.12
2018-07-16T14:51:31.908Z,298.12
2018-07-16T14:52:31.903Z,298.12
2018-07-16T14:53:31.892Z,298.12
2018-07-16T14:54:31.870Z,298.12
2018-07-16T14:55:31.859Z,303.75
2018-07-16T14:56:31.850Z,303.75
2018-07-16T14:57:31.851Z,309.38
2018-07-16T14:58:31.829Z,315.00
2018-07-16T14:59:31.817Z,309.38
2018-07-16T15:00:31.804Z,315.00
2018-07-16T15:01:31.793Z,320.62
2018-07-16T15:02:31.795Z,326.25
2018-07-16T15:03:31.774Z,326.25
2018-07-16T15:04:31.768Z,331.88
2018-07-16T15:05:31.762Z,331.88
2018-07-16T15:06:31.741Z,337.50
2018-07-16T15:07:31.744Z,343.12
2018-07-16T15:08:31.781Z,348.75
2018-07-16T15:09:31.707Z,354.38
2018-07-16T15:10:31.712Z,360.00
2018-07-16T15:11:31.689Z,365.62
2018-07-16T15:12:31.682Z,371.25
2018-07-16T15:13:31.664Z,376.88
2018-07-16T15:14:31.651Z,382.50
2018-07-16T15:15:31.648Z,388.12
2018-07-16T15:16:31.631Z,399.38
2018-07-16T15:17:31.628Z,399.38
2018-07-16T15:18:31.613Z,405.00
2018-07-16T15:19:31.595Z,405.00
2018-07-16T15:20:31.739Z,405.00
2018-07-16T15:21:31.760Z,410.62
2018-07-16T15:22:31.569Z,410.62
2018-07-16T15:23:31.549Z,416.25
2018-07-16T15:24:31.539Z,416.25
2018-07-16T15:25:31.527Z,416.25
2018-07-16T15:26:31.514Z,416.25
2018-07-16T15:27:31.512Z,416.25
2018-07-16T15:28:31.515Z,416.25
2018-07-16T15:29:31.539Z,421.88
2018-07-16T15:30:31.469Z,421.88
2018-07-16T15:31:31.457Z,421.88
2018-07-16T15:32:31.456Z,421.88
2018-07-16T15:33:31.434Z,427.50
2018-07-16T15:34:31.426Z,427.50
2018-07-16T15:35:31.419Z,433.12
2018-07-16T15:36:31.403Z,433.12
2018-07-16T15:37:31.413Z,433.12
2018-07-16T15:38:31.385Z,433.12
2018-07-16T15:39:31.367Z,438.75
2018-07-16T15:40:31.388Z,438.75
2018-07-16T15:41:31.451Z,444.38
2018-07-16T15:42:31.331Z,438.75
2018-07-16T15:43:31.334Z,438.75
2018-07-16T15:44:31.311Z,444.38
2018-07-16T15:45:31.304Z,438.75
2018-07-16T15:46:31.285Z,438.75
2018-07-16T15:47:31.288Z,438.75
2018-07-16T15:48:31.280Z,438.75
2018-07-16T15:49:31.255Z,438.75
2018-07-16T15:50:31.245Z,433.12
2018-07-16T15:51:31.231Z,433.12
2018-07-16T15:52:31.222Z,438.75
2018-07-16T15:53:31.229Z,438.75
2018-07-16T15:54:31.193Z,438.75
2018-07-16T15:55:31.183Z,438.75
2018-07-16T15:56:31.171Z,438.75
2018-07-16T15:57:31.159Z,438.75
2018-07-16T15:58:31.161Z,438.75
2018-07-16T15:59:31.138Z,438.75
2018-07-16T16:00:31.129Z,438.75
2018-07-16T16:01:31.113Z,433.12
2018-07-16T16:02:31.103Z,433.12
2018-07-16T16:03:31.107Z,433.12
2018-07-16T16:04:31.088Z,427.50
2018-07-16T16:05:31.071Z,421.88
2018-07-16T16:06:31.059Z,421.88
2018-07-16T16:07:31.046Z,421.88
2018-07-16T16:08:31.051Z,421.88
2018-07-16T16:09:31.029Z,421.88
2018-07-16T16:10:31.014Z,427.50
2018-07-16T16:11:31.002Z,427.50
2018-07-16T16:12:30.989Z,433.12
2018-07-16T16:13:30.991Z,433.12
2018-07-16T16:14:30.966Z,427.50
2018-07-16T16:15:30.958Z,421.88
2018-07-16T16:16:31.001Z,416.25
2018-07-16T16:17:30.950Z,410.62
2018-07-16T16:18:30.932Z,405.00
2018-07-16T16:19:30.911Z,399.38
2018-07-16T16:20:30.898Z,388.12
2018-07-16T16:21:30.894Z,382.50
2018-07-16T16:22:30.880Z,371.25